sensor_id;sensor_type;location;lat;lon;timestamp;pressure;altitude;pressure_sealevel;temperature;humidity
57442;BME280;43284;47.042;15.498;2022-08-01T00:02:20;97158.94;;;17.36;79.97
57442;BME280;43284;47.042;15.498;2022-08-01T00:04:48;97162.44;;;17.36;80.22
57442;BME280;43284;47.042;15.498;2022-08-01T00:07:15;97162.53;;;17.35;80.05
57442;BME280;43284;47.042;15.498;2022-08-01T00:09:42;97159.78;;;17.36;79.64
57442;BME280;43284;47.042;15.498;2022-08-01T00:12:10;97156.28;;;17.36;80.88
57442;BME280;43284;47.042;15.498;2022-08-01T00:14:37;97149.22;;;17.36;80.63
57442;BME280;43284;47.042;15.498;2022-08-01T00:17:04;97156.44;;;17.34;80.04
57442;BME280;43284;47.042;15.498;2022-08-01T00:19:31;97149.22;;;17.36;81.00
57442;BME280;43284;47.042;15.498;2022-08-01T00:21:59;97145.84;;;17.34;80.90
57442;BME280;43284;47.042;15.498;2022-08-01T00:24:26;97150.53;;;17.30;80.31
57442;BME280;43284;47.042;15.498;2022-08-01T00:26:53;97144.88;;;17.24;80.46
57442;BME280;43284;47.042;15.498;2022-08-01T00:29:21;97143.50;;;17.18;80.70
57442;BME280;43284;47.042;15.498;2022-08-01T00:31:48;97142.78;;;17.16;80.79
57442;BME280;43284;47.042;15.498;2022-08-01T00:34:15;97136.91;;;17.13;80.83
57442;BME280;43284;47.042;15.498;2022-08-01T00:36:42;97137.13;;;17.09;80.50
57442;BME280;43284;47.042;15.498;2022-08-01T00:39:10;97144.94;;;17.11;80.45
57442;BME280;43284;47.042;15.498;2022-08-01T00:41:37;97145.06;;;17.09;80.49
57442;BME280;43284;47.042;15.498;2022-08-01T00:44:05;97139.75;;;17.09;80.37
57442;BME280;43284;47.042;15.498;2022-08-01T00:46:33;97138.34;;;17.05;80.43
57442;BME280;43284;47.042;15.498;2022-08-01T00:49:01;97137.63;;;17.03;80.41
57442;BME280;43284;47.042;15.498;2022-08-01T00:51:28;97142.38;;;16.98;80.39
57442;BME280;43284;47.042;15.498;2022-08-01T00:53:56;97146.34;;;16.93;81.70
57442;BME280;43284;47.042;15.498;2022-08-01T00:56:25;97137.31;;;16.84;81.22
57442;BME280;43284;47.042;15.498;2022-08-01T00:58:54;97144.81;;;16.77;80.18
57442;BME280;43284;47.042;15.498;2022-08-01T01:01:22;97145.16;;;16.73;80.36
57442;BME280;43284;47.042;15.498;2022-08-01T01:03:51;97147.06;;;16.71;80.34
57442;BME280;43284;47.042;15.498;2022-08-01T01:09:32;97142.56;;;16.60;80.25
57442;BME280;43284;47.042;15.498;2022-08-01T01:12:19;97148.78;;;16.59;nan
57442;BME280;43284;47.042;15.498;2022-08-01T01:15:10;97143.75;;;16.56;80.01
57442;BME280;43284;47.042;15.498;2022-08-01T01:20:23;97143.50;;;16.35;80.46
57442;BME280;43284;47.042;15.498;2022-08-01T01:26:04;97135.50;;;16.23;81.93
57442;BME280;43284;47.042;15.498;2022-08-01T01:31:28;97133.22;;;16.19;80.75
57442;BME280;43284;47.042;15.498;2022-08-01T01:33:59;97130.56;;;16.19;80.60
57442;BME280;43284;47.042;15.498;2022-08-01T01:36:29;97131.72;;;16.15;80.12
57442;BME280;43284;47.042;15.498;2022-08-01T01:38:58;97133.75;;;16.11;80.22
57442;BME280;43284;47.042;15.498;2022-08-01T01:41:26;97118.38;;;16.05;80.96
57442;BME280;43284;47.042;15.498;2022-08-01T01:43:54;97124.91;;;15.99;81.65
57442;BME280;43284;47.042;15.498;2022-08-01T01:46:24;97126.81;;;15.97;81.04
57442;BME280;43284;47.042;15.498;2022-08-01T01:48:55;97128.81;;;15.94;80.90
57442;BME280;43284;47.042;15.498;2022-08-01T01:51:25;97128.41;;;15.87;80.72
57442;BME280;43284;47.042;15.498;2022-08-01T01:53:54;97128.41;;;15.87;81.37
57442;BME280;43284;47.042;15.498;2022-08-01T01:56:23;97132.75;;;15.88;81.79
57442;BME280;43284;47.042;15.498;2022-08-01T01:58:55;97128.41;;;15.87;81.72
57442;BME280;43284;47.042;15.498;2022-08-01T02:01:27;97127.47;;;15.88;81.92
57442;BME280;43284;47.042;15.498;2022-08-01T02:03:56;97129.28;;;15.88;82.15
57442;BME280;43284;47.042;15.498;2022-08-01T02:06:26;97117.25;;;15.83;82.18
57442;BME280;43284;47.042;15.498;2022-08-01T02:08:54;97115.78;;;15.79;81.92
57442;BME280;43284;47.042;15.498;2022-08-01T02:11:22;97117.47;;;15.80;82.29
57442;BME280;43284;47.042;15.498;2022-08-01T02:14:01;97113.06;;;15.81;83.01
57442;BME280;43284;47.042;15.498;2022-08-01T02:16:31;97124.63;;;15.78;83.04
57442;BME280;43284;47.042;15.498;2022-08-01T02:19:02;97121.25;;;15.76;82.61
57442;BME280;43284;47.042;15.498;2022-08-01T02:22:00;97127.59;;;15.74;82.45
57442;BME280;43284;47.042;15.498;2022-08-01T02:27:12;97117.25;;;15.71;83.61
57442;BME280;43284;47.042;15.498;2022-08-01T02:29:54;97110.59;;;15.65;83.83
57442;BME280;43284;47.042;15.498;2022-08-01T02:32:49;97110.59;;;15.65;84.28
57442;BME280;43284;47.042;15.498;2022-08-01T02:35:27;97114.31;;;15.75;84.18
57442;BME280;43284;47.042;15.498;2022-08-01T02:37:57;97114.09;;;15.78;83.90
57442;BME280;43284;47.042;15.498;2022-08-01T02:40:28;97112.66;;;15.74;84.16
57442;BME280;43284;47.042;15.498;2022-08-01T02:42:57;97119.97;;;15.69;84.62
57442;BME280;43284;47.042;15.498;2022-08-01T02:45:26;97124.31;;;15.70;84.26
57442;BME280;43284;47.042;15.498;2022-08-01T02:48:03;97118.84;;;15.73;84.82
57442;BME280;43284;47.042;15.498;2022-08-01T02:50:34;97120.66;;;15.73;85.32
57442;BME280;43284;47.042;15.498;2022-08-01T02:53:03;97115.03;;;15.64;85.05
57442;BME280;43284;47.042;15.498;2022-08-01T02:55:33;97115.13;;;15.63;85.61
57442;BME280;43284;47.042;15.498;2022-08-01T02:58:02;97106.47;;;15.61;85.17
57442;BME280;43284;47.042;15.498;2022-08-01T03:00:30;97107.13;;;15.64;85.41
57442;BME280;43284;47.042;15.498;2022-08-01T03:02:59;97107.63;;;15.70;86.19
57442;BME280;43284;47.042;15.498;2022-08-01T03:05:28;97108.31;;;15.73;85.77
57442;BME280;43284;47.042;15.498;2022-08-01T03:08:00;97116.94;;;15.88;85.11
57442;BME280;43284;47.042;15.498;2022-08-01T03:10:29;97124.94;;;15.86;84.47
57442;BME280;43284;47.042;15.498;2022-08-01T03:12:59;97129.91;;;15.78;85.07
57442;BME280;43284;47.042;15.498;2022-08-01T03:15:28;97138.88;;;15.76;85.66
57442;BME280;43284;47.042;15.498;2022-08-01T03:17:59;97136.47;;;15.73;85.86
57442;BME280;43284;47.042;15.498;2022-08-01T03:20:28;97129.50;;;15.72;85.75
57442;BME280;43284;47.042;15.498;2022-08-01T03:22:57;97130.75;;;15.66;85.59
57442;BME280;43284;47.042;15.498;2022-08-01T03:25:28;97133.47;;;15.64;86.15
57442;BME280;43284;47.042;15.498;2022-08-01T03:27:59;97131.81;;;15.63;85.97
57442;BME280;43284;47.042;15.498;2022-08-01T03:30:29;97133.69;;;15.61;85.45
57442;BME280;43284;47.042;15.498;2022-08-01T03:32:58;97127.16;;;15.54;85.29
57442;BME280;43284;47.042;15.498;2022-08-01T03:35:32;97122.19;;;15.50;85.30
57442;BME280;43284;47.042;15.498;2022-08-01T03:38:02;97120.72;;;15.45;85.30
57442;BME280;43284;47.042;15.498;2022-08-01T03:40:45;97126.13;;;15.44;85.53
57442;BME280;43284;47.042;15.498;2022-08-01T03:43:16;97122.53;;;15.45;85.42
57442;BME280;43284;47.042;15.498;2022-08-01T03:45:50;97123.16;;;15.49;85.66
57442;BME280;43284;47.042;15.498;2022-08-01T03:48:24;97122.94;;;15.52;85.81
57442;BME280;43284;47.042;15.498;2022-08-01T03:50:56;97118.63;;;15.51;86.12
57442;BME280;43284;47.042;15.498;2022-08-01T03:53:28;97118.72;;;15.49;86.29
57442;BME280;43284;47.042;15.498;2022-08-01T03:56:00;97125.06;;;15.47;86.68
57442;BME280;43284;47.042;15.498;2022-08-01T03:58:30;97127.78;;;15.45;86.78
57442;BME280;43284;47.042;15.498;2022-08-01T04:00:58;97132.13;;;15.46;87.46
57442;BME280;43284;47.042;15.498;2022-08-01T04:03:26;97131.38;;;15.44;86.21
57442;BME280;43284;47.042;15.498;2022-08-01T04:05:54;97125.38;;;15.42;85.80
57442;BME280;43284;47.042;15.498;2022-08-01T04:08:22;97125.38;;;15.42;85.70
57442;BME280;43284;47.042;15.498;2022-08-01T04:10:49;97133.06;;;15.45;85.99
57442;BME280;43284;47.042;15.498;2022-08-01T04:13:16;97137.28;;;15.48;85.86
57442;BME280;43284;47.042;15.498;2022-08-01T04:15:43;97131.91;;;15.49;85.78
57442;BME280;43284;47.042;15.498;2022-08-01T04:18:10;97130.94;;;15.50;86.64
57442;BME280;43284;47.042;15.498;2022-08-01T04:20:38;97127.28;;;15.53;86.85
57442;BME280;43284;47.042;15.498;2022-08-01T04:23:06;97138.22;;;15.59;85.78
57442;BME280;43284;47.042;15.498;2022-08-01T04:25:35;97128.44;;;15.61;86.33
57442;BME280;43284;47.042;15.498;2022-08-01T04:28:06;97132.09;;;15.59;85.60
57442;BME280;43284;47.042;15.498;2022-08-01T04:30:38;97126.00;;;15.58;85.72
57442;BME280;43284;47.042;15.498;2022-08-01T04:33:08;97130.53;;;15.56;85.55
57442;BME280;43284;47.042;15.498;2022-08-01T04:35:39;97124.41;;;15.56;85.73
57442;BME280;43284;47.042;15.498;2022-08-01T04:38:08;97137.38;;;15.59;85.34
57442;BME280;43284;47.042;15.498;2022-08-01T04:40:38;97139.81;;;15.62;86.10
57442;BME280;43284;47.042;15.498;2022-08-01T04:43:05;97136.84;;;15.66;86.80
57442;BME280;43284;47.042;15.498;2022-08-01T04:45:33;97145.72;;;15.65;86.25
57442;BME280;43284;47.042;15.498;2022-08-01T04:48:01;97135.88;;;15.68;85.75
57442;BME280;43284;47.042;15.498;2022-08-01T04:50:28;97145.19;;;15.73;85.88
57442;BME280;43284;47.042;15.498;2022-08-01T04:52:57;97142.16;;;15.79;86.73
57442;BME280;43284;47.042;15.498;2022-08-01T04:55:24;97147.81;;;15.86;86.47
57442;BME280;43284;47.042;15.498;2022-08-01T04:57:51;97154.03;;;15.85;86.50
57442;BME280;43284;47.042;15.498;2022-08-01T05:00:18;97142.66;;;15.84;86.92
57442;BME280;43284;47.042;15.498;2022-08-01T05:02:46;97139.19;;;15.84;86.35
57442;BME280;43284;47.042;15.498;2022-08-01T05:05:13;97141.50;;;15.89;86.87
57442;BME280;43284;47.042;15.498;2022-08-01T05:07:41;97146.44;;;15.93;86.20
57442;BME280;43284;47.042;15.498;2022-08-01T05:10:09;97146.84;;;16.00;86.37
57442;BME280;43284;47.042;15.498;2022-08-01T05:12:37;97146.31;;;16.08;86.64
57442;BME280;43284;47.042;15.498;2022-08-01T05:15:05;97135.22;;;16.15;86.55
57442;BME280;43284;47.042;15.498;2022-08-01T05:17:33;97144.38;;;16.22;87.05
57442;BME280;43284;47.042;15.498;2022-08-01T05:19:59;97143.91;;;16.28;86.81
57442;BME280;43284;47.042;15.498;2022-08-01T05:22:27;97139.91;;;16.36;87.26
57442;BME280;43284;47.042;15.498;2022-08-01T05:24:59;97135.03;;;16.42;86.06
57442;BME280;43284;47.042;15.498;2022-08-01T05:27:27;97132.66;;;16.51;86.00
57442;BME280;43284;47.042;15.498;2022-08-01T05:29:56;97134.41;;;16.63;85.56
57442;BME280;43284;47.042;15.498;2022-08-01T05:32:24;97137.81;;;16.76;84.42
57442;BME280;43284;47.042;15.498;2022-08-01T05:34:51;97130.94;;;16.86;83.80
57442;BME280;43284;47.042;15.498;2022-08-01T05:37:19;97128.44;;;16.96;83.81
57442;BME280;43284;47.042;15.498;2022-08-01T05:39:46;97135.69;;;17.05;83.87
57442;BME280;43284;47.042;15.498;2022-08-01T05:42:14;97141.22;;;17.14;83.12
57442;BME280;43284;47.042;15.498;2022-08-01T05:44:41;97141.59;;;17.20;82.61
57442;BME280;43284;47.042;15.498;2022-08-01T05:47:10;97139.94;;;17.30;83.69
57442;BME280;43284;47.042;15.498;2022-08-01T05:49:38;97132.28;;;17.39;83.76
57442;BME280;43284;47.042;15.498;2022-08-01T05:52:06;97131.09;;;17.43;83.17
57442;BME280;43284;47.042;15.498;2022-08-01T05:54:34;97128.09;;;17.47;81.75
57442;BME280;43284;47.042;15.498;2022-08-01T05:57:04;97131.22;;;17.53;81.53
57442;BME280;43284;47.042;15.498;2022-08-01T05:59:32;97135.94;;;17.60;81.78
57442;BME280;43284;47.042;15.498;2022-08-01T06:02:00;97142.16;;;17.70;83.45
57442;BME280;43284;47.042;15.498;2022-08-01T06:04:27;97140.50;;;17.69;83.53
57442;BME280;43284;47.042;15.498;2022-08-01T06:06:55;97148.53;;;17.68;84.63
57442;BME280;43284;47.042;15.498;2022-08-01T06:09:25;97152.16;;;17.67;85.22
57442;BME280;43284;47.042;15.498;2022-08-01T06:11:53;97147.81;;;17.66;85.79
57442;BME280;43284;47.042;15.498;2022-08-01T06:14:20;97157.44;;;17.67;85.03
57442;BME280;43284;47.042;15.498;2022-08-01T06:16:48;97152.88;;;17.69;85.29
57442;BME280;43284;47.042;15.498;2022-08-01T06:19:16;97152.72;;;17.70;84.50
57442;BME280;43284;47.042;15.498;2022-08-01T06:21:44;97148.16;;;17.73;84.06
57442;BME280;43284;47.042;15.498;2022-08-01T06:24:13;97156.59;;;17.78;84.58
57442;BME280;43284;47.042;15.498;2022-08-01T06:26:43;97160.47;;;17.85;85.47
57442;BME280;43284;47.042;15.498;2022-08-01T06:29:10;97155.44;;;17.93;86.18
57442;BME280;43284;47.042;15.498;2022-08-01T06:31:37;97163.00;;;17.98;86.19
57442;BME280;43284;47.042;15.498;2022-08-01T06:34:04;97158.09;;;18.04;85.91
57442;BME280;43284;47.042;15.498;2022-08-01T06:36:31;97161.91;;;18.11;85.75
57442;BME280;43284;47.042;15.498;2022-08-01T06:38:59;97160.47;;;18.19;84.52
57442;BME280;43284;47.042;15.498;2022-08-01T06:41:26;97154.47;;;18.28;84.75
57442;BME280;43284;47.042;15.498;2022-08-01T06:43:54;97151.44;;;18.32;84.03
57442;BME280;43284;47.042;15.498;2022-08-01T06:46:21;97143.69;;;18.41;84.82
57442;BME280;43284;47.042;15.498;2022-08-01T06:48:48;97154.16;;;18.42;84.11
57442;BME280;43284;47.042;15.498;2022-08-01T06:51:15;97152.25;;;18.44;82.87
57442;BME280;43284;47.042;15.498;2022-08-01T06:53:46;97155.59;;;18.46;82.50
57442;BME280;43284;47.042;15.498;2022-08-01T06:56:13;97152.97;;;18.46;81.46
57442;BME280;43284;47.042;15.498;2022-08-01T06:58:40;97153.06;;;18.45;80.31
57442;BME280;43284;47.042;15.498;2022-08-01T07:01:08;97134.44;;;18.46;81.20
57442;BME280;43284;47.042;15.498;2022-08-01T07:03:36;97139.63;;;18.48;82.41
57442;BME280;43284;47.042;15.498;2022-08-01T07:06:04;97140.56;;;18.47;83.27
57442;BME280;43284;47.042;15.498;2022-08-01T07:08:31;97135.38;;;18.45;84.17
57442;BME280;43284;47.042;15.498;2022-08-01T07:10:59;97133.59;;;18.46;83.46
57442;BME280;43284;47.042;15.498;2022-08-01T07:13:27;97135.75;;;18.52;84.14
57442;BME280;43284;47.042;15.498;2022-08-01T07:15:54;97141.50;;;18.57;84.37
57442;BME280;43284;47.042;15.498;2022-08-01T07:18:21;97139.31;;;18.62;84.56
57442;BME280;43284;47.042;15.498;2022-08-01T07:20:49;97144.50;;;18.64;83.81
57442;BME280;43284;47.042;15.498;2022-08-01T07:23:16;97134.97;;;18.72;84.15
57442;BME280;43284;47.042;15.498;2022-08-01T07:25:45;97137.84;;;18.81;83.11
57442;BME280;43284;47.042;15.498;2022-08-01T07:28:15;97146.97;;;18.88;82.50
57442;BME280;43284;47.042;15.498;2022-08-01T07:30:44;97134.44;;;18.90;79.29
57442;BME280;43284;47.042;15.498;2022-08-01T07:33:12;97139.34;;;18.94;78.18
57442;BME280;43284;47.042;15.498;2022-08-01T07:35:42;97141.72;;;18.98;76.74
57442;BME280;43284;47.042;15.498;2022-08-01T07:38:12;97135.81;;;19.05;77.80
57442;BME280;43284;47.042;15.498;2022-08-01T07:40:41;97135.44;;;19.10;77.62
57442;BME280;43284;47.042;15.498;2022-08-01T07:43:11;97137.97;;;19.11;73.85
57442;BME280;43284;47.042;15.498;2022-08-01T07:45:40;97128.50;;;19.19;74.31
57442;BME280;43284;47.042;15.498;2022-08-01T07:48:14;97135.56;;;19.29;71.97
57442;BME280;43284;47.042;15.498;2022-08-01T07:50:43;97123.94;;;19.42;71.73
57442;BME280;43284;47.042;15.498;2022-08-01T07:53:10;97130.19;;;19.62;72.31
57442;BME280;43284;47.042;15.498;2022-08-01T07:55:38;97136.25;;;19.73;71.03
57442;BME280;43284;47.042;15.498;2022-08-01T07:58:05;97133.81;;;19.91;70.11
57442;BME280;43284;47.042;15.498;2022-08-01T08:00:32;97139.19;;;20.11;70.44
57442;BME280;43284;47.042;15.498;2022-08-01T08:03:00;97139.44;;;20.38;73.30
57442;BME280;43284;47.042;15.498;2022-08-01T08:05:28;97140.00;;;20.52;69.67
57442;BME280;43284;47.042;15.498;2022-08-01T08:07:56;97134.47;;;20.74;69.88
57442;BME280;43284;47.042;15.498;2022-08-01T08:10:23;97132.94;;;20.91;71.35
57442;BME280;43284;47.042;15.498;2022-08-01T08:12:51;97140.78;;;21.03;70.72
57442;BME280;43284;47.042;15.498;2022-08-01T08:15:19;97136.44;;;21.11;68.80
57442;BME280;43284;47.042;15.498;2022-08-01T08:17:47;97136.28;;;21.23;69.64
57442;BME280;43284;47.042;15.498;2022-08-01T08:20:16;97141.44;;;21.34;69.80
57442;BME280;43284;47.042;15.498;2022-08-01T08:22:43;97140.47;;;21.45;68.81
57442;BME280;43284;47.042;15.498;2022-08-01T08:25:11;97139.63;;;21.54;68.36
57442;BME280;43284;47.042;15.498;2022-08-01T08:27:39;97143.25;;;21.63;67.32
57442;BME280;43284;47.042;15.498;2022-08-01T08:30:07;97139.84;;;21.70;67.03
57442;BME280;43284;47.042;15.498;2022-08-01T08:32:37;97141.50;;;21.81;65.99
57442;BME280;43284;47.042;15.498;2022-08-01T08:35:07;97128.84;;;21.93;68.21
57442;BME280;43284;47.042;15.498;2022-08-01T08:37:38;97128.97;;;22.01;67.64
57442;BME280;43284;47.042;15.498;2022-08-01T08:40:06;97126.53;;;22.08;65.88
57442;BME280;43284;47.042;15.498;2022-08-01T08:42:36;97126.66;;;22.16;65.35
57442;BME280;43284;47.042;15.498;2022-08-01T08:45:10;97130.28;;;22.25;64.81
57442;BME280;43284;47.042;15.498;2022-08-01T08:47:39;97122.69;;;22.30;66.71
57442;BME280;43284;47.042;15.498;2022-08-01T08:50:09;97120.44;;;22.35;65.39
57442;BME280;43284;47.042;15.498;2022-08-01T08:52:38;97121.63;;;22.40;64.97
57442;BME280;43284;47.042;15.498;2022-08-01T08:55:07;97128.03;;;22.48;65.38
57442;BME280;43284;47.042;15.498;2022-08-01T08:57:35;97119.91;;;22.49;61.85
57442;BME280;43284;47.042;15.498;2022-08-01T09:00:02;97120.97;;;22.56;61.66
57442;BME280;43284;47.042;15.498;2022-08-01T09:02:30;97120.78;;;22.68;63.36
57442;BME280;43284;47.042;15.498;2022-08-01T09:04:58;97117.88;;;22.79;62.25
57442;BME280;43284;47.042;15.498;2022-08-01T09:07:25;97118.72;;;22.79;61.30
57442;BME280;43284;47.042;15.498;2022-08-01T09:09:52;97113.97;;;22.91;63.20
57442;BME280;43284;47.042;15.498;2022-08-01T09:12:19;97110.94;;;23.04;62.13
57442;BME280;43284;47.042;15.498;2022-08-01T09:14:48;97116.72;;;23.17;62.82
57442;BME280;43284;47.042;15.498;2022-08-01T09:17:16;97114.34;;;23.32;59.64
57442;BME280;43284;47.042;15.498;2022-08-01T09:19:50;97113.63;;;23.48;59.79
57442;BME280;43284;47.042;15.498;2022-08-01T09:22:23;97117.59;;;23.70;60.30
57442;BME280;43284;47.042;15.498;2022-08-01T09:27:33;97110.63;;;24.12;58.46
57442;BME280;43284;47.042;15.498;2022-08-01T09:30:13;97111.72;;;24.27;57.76
57442;BME280;43284;47.042;15.498;2022-08-01T09:33:13;97110.09;;;24.42;53.75
57442;BME280;43284;47.042;15.498;2022-08-01T09:35:40;97110.50;;;24.64;53.31
57442;BME280;43284;47.042;15.498;2022-08-01T09:38:18;97109.03;;;24.78;57.81
57442;BME280;43284;47.042;15.498;2022-08-01T09:40:54;97106.19;;;24.87;56.88
57442;BME280;43284;47.042;15.498;2022-08-01T09:43:25;97105.72;;;25.08;55.16
57442;BME280;43284;47.042;15.498;2022-08-01T09:45:53;97104.91;;;25.24;55.32
57442;BME280;43284;47.042;15.498;2022-08-01T09:48:21;97104.56;;;25.36;56.83
57442;BME280;43284;47.042;15.498;2022-08-01T09:50:53;97101.19;;;25.42;54.64
57442;BME280;43284;47.042;15.498;2022-08-01T09:53:21;97104.72;;;25.42;52.50
57442;BME280;43284;47.042;15.498;2022-08-01T09:55:48;97105.38;;;25.53;57.11
57442;BME280;43284;47.042;15.498;2022-08-01T09:58:20;97099.31;;;25.67;50.99
57442;BME280;43284;47.042;15.498;2022-08-01T10:00:59;97097.94;;;25.71;53.43
57442;BME280;43284;47.042;15.498;2022-08-01T10:03:30;97095.56;;;25.84;52.69
57442;BME280;43284;47.042;15.498;2022-08-01T10:05:57;97086.84;;;25.99;52.61
57442;BME280;43284;47.042;15.498;2022-08-01T10:08:28;97092.84;;;26.09;54.01
57442;BME280;43284;47.042;15.498;2022-08-01T10:11:13;97092.78;;;26.17;53.46
57442;BME280;43284;47.042;15.498;2022-08-01T10:13:42;97091.53;;;26.36;52.32
57442;BME280;43284;47.042;15.498;2022-08-01T10:16:12;97084.66;;;26.42;50.69
57442;BME280;43284;47.042;15.498;2022-08-01T10:18:41;97072.47;;;26.62;50.60
57442;BME280;43284;47.042;15.498;2022-08-01T10:21:09;97073.16;;;26.87;52.39
57442;BME280;43284;47.042;15.498;2022-08-01T10:23:37;97063.66;;;27.00;49.01
57442;BME280;43284;47.042;15.498;2022-08-01T10:26:09;97063.84;;;27.21;48.29
57442;BME280;43284;47.042;15.498;2022-08-01T10:28:39;97061.91;;;27.30;47.06
57442;BME280;43284;47.042;15.498;2022-08-01T10:31:11;97063.22;;;27.34;48.42
57442;BME280;43284;47.042;15.498;2022-08-01T10:33:39;97068.09;;;27.30;45.88
57442;BME280;43284;47.042;15.498;2022-08-01T10:36:08;97062.94;;;27.29;45.12
57442;BME280;43284;47.042;15.498;2022-08-01T10:38:37;97067.03;;;27.17;46.56
57442;BME280;43284;47.042;15.498;2022-08-01T10:41:05;97066.34;;;27.23;48.68
57442;BME280;43284;47.042;15.498;2022-08-01T10:43:32;97062.31;;;27.19;45.55
57442;BME280;43284;47.042;15.498;2022-08-01T10:46:00;97066.81;;;27.03;47.61
57442;BME280;43284;47.042;15.498;2022-08-01T10:51:19;97051.69;;;26.87;49.64
57442;BME280;43284;47.042;15.498;2022-08-01T10:53:53;97052.75;;;26.78;46.34
57442;BME280;43284;47.042;15.498;2022-08-01T10:56:21;97054.38;;;26.87;45.72
57442;BME280;43284;47.042;15.498;2022-08-01T10:58:49;97045.53;;;27.02;45.19
57442;BME280;43284;47.042;15.498;2022-08-01T11:01:27;97037.00;;;27.21;46.16
57442;BME280;43284;47.042;15.498;2022-08-01T11:04:03;97033.31;;;27.37;46.82
57442;BME280;43284;47.042;15.498;2022-08-01T11:09:15;97035.53;;;27.63;46.17
57442;BME280;43284;47.042;15.498;2022-08-01T11:12:17;97029.34;;;27.78;42.71
57442;BME280;43284;47.042;15.498;2022-08-01T11:17:31;97024.16;;;28.06;42.52
57442;BME280;43284;47.042;15.498;2022-08-01T11:20:18;97030.75;;;28.25;42.36
57442;BME280;43284;47.042;15.498;2022-08-01T11:30:47;97018.75;;;28.21;45.15
57442;BME280;43284;47.042;15.498;2022-08-01T11:33:16;97024.81;;;28.29;44.17
57442;BME280;43284;47.042;15.498;2022-08-01T11:38:39;97022.34;;;28.28;42.37
57442;BME280;43284;47.042;15.498;2022-08-01T11:41:23;97018.41;;;28.09;46.04
57442;BME280;43284;47.042;15.498;2022-08-01T11:44:05;97008.69;;;28.29;42.40
57442;BME280;43284;47.042;15.498;2022-08-01T11:54:28;96996.53;;;28.33;39.55
57442;BME280;43284;47.042;15.498;2022-08-01T11:56:57;96996.97;;;28.52;41.29
57442;BME280;43284;47.042;15.498;2022-08-01T11:59:25;96999.03;;;28.71;43.69
57442;BME280;43284;47.042;15.498;2022-08-01T12:01:53;96997.72;;;28.89;42.89
57442;BME280;43284;47.042;15.498;2022-08-01T12:04:20;96990.66;;;29.09;41.86
57442;BME280;43284;47.042;15.498;2022-08-01T12:06:47;96992.13;;;29.12;38.83
57442;BME280;43284;47.042;15.498;2022-08-01T12:09:22;97002.38;;;29.30;37.93
57442;BME280;43284;47.042;15.498;2022-08-01T12:11:51;96999.81;;;29.43;35.31
57442;BME280;43284;47.042;15.498;2022-08-01T12:14:20;96992.47;;;29.65;34.24
57442;BME280;43284;47.042;15.498;2022-08-01T12:16:56;96988.34;;;29.69;35.06
57442;BME280;43284;47.042;15.498;2022-08-01T12:19:24;96986.22;;;29.65;36.38
57442;BME280;43284;47.042;15.498;2022-08-01T12:22:21;96985.47;;;29.71;37.48
57442;BME280;43284;47.042;15.498;2022-08-01T12:24:49;96984.28;;;29.87;35.00
57442;BME280;43284;47.042;15.498;2022-08-01T12:27:28;96978.56;;;30.03;38.50
57442;BME280;43284;47.042;15.498;2022-08-01T12:29:58;96972.97;;;30.05;33.80
57442;BME280;43284;47.042;15.498;2022-08-01T12:32:31;96964.47;;;30.14;35.14
57442;BME280;43284;47.042;15.498;2022-08-01T12:35:08;96960.22;;;30.40;37.24
57442;BME280;43284;47.042;15.498;2022-08-01T12:37:40;96974.34;;;30.62;37.71
57442;BME280;43284;47.042;15.498;2022-08-01T12:40:12;96962.13;;;30.73;31.22
57442;BME280;43284;47.042;15.498;2022-08-01T12:42:45;96965.03;;;30.91;32.39
57442;BME280;43284;47.042;15.498;2022-08-01T12:45:17;96973.53;;;30.82;34.27
57442;BME280;43284;47.042;15.498;2022-08-01T12:47:45;96960.28;;;30.87;32.27
57442;BME280;43284;47.042;15.498;2022-08-01T12:50:16;96959.63;;;30.85;32.61
57442;BME280;43284;47.042;15.498;2022-08-01T12:52:46;96966.06;;;31.17;36.44
57442;BME280;43284;47.042;15.498;2022-08-01T12:55:22;96958.59;;;31.19;32.57
57442;BME280;43284;47.042;15.498;2022-08-01T12:58:07;96964.41;;;31.29;34.88
57442;BME280;43284;47.042;15.498;2022-08-01T13:00:38;96952.34;;;31.18;31.68
57442;BME280;43284;47.042;15.498;2022-08-01T13:03:19;96957.72;;;31.38;33.20
57442;BME280;43284;47.042;15.498;2022-08-01T13:05:50;96957.91;;;31.50;33.01
57442;BME280;43284;47.042;15.498;2022-08-01T13:08:26;96959.34;;;31.53;35.39
57442;BME280;43284;47.042;15.498;2022-08-01T13:11:08;96965.03;;;31.90;33.02
57442;BME280;43284;47.042;15.498;2022-08-01T13:13:50;96952.00;;;31.80;30.84
57442;BME280;43284;47.042;15.498;2022-08-01T13:16:27;96954.81;;;32.05;30.30
57442;BME280;43284;47.042;15.498;2022-08-01T13:18:56;96954.03;;;31.91;31.65
57442;BME280;43284;47.042;15.498;2022-08-01T13:21:29;96950.50;;;31.91;30.73
57442;BME280;43284;47.042;15.498;2022-08-01T13:24:11;96944.66;;;31.94;31.32
57442;BME280;43284;47.042;15.498;2022-08-01T13:26:46;96946.72;;;31.98;30.97
57442;BME280;43284;47.042;15.498;2022-08-01T13:29:20;96949.97;;;31.69;32.19
57442;BME280;43284;47.042;15.498;2022-08-01T13:31:49;96961.81;;;31.68;31.53
57442;BME280;43284;47.042;15.498;2022-08-01T13:34:16;96955.81;;;31.52;30.57
57442;BME280;43284;47.042;15.498;2022-08-01T13:36:44;96960.41;;;31.38;32.61
57442;BME280;43284;47.042;15.498;2022-08-01T13:39:11;96951.75;;;31.03;32.41
57442;BME280;43284;47.042;15.498;2022-08-01T13:41:57;96954.22;;;30.85;34.17
57442;BME280;43284;47.042;15.498;2022-08-01T13:44:24;96955.66;;;30.67;34.27
57442;BME280;43284;47.042;15.498;2022-08-01T13:46:51;96955.91;;;30.72;34.89
57442;BME280;43284;47.042;15.498;2022-08-01T13:49:21;96956.53;;;30.74;34.70
57442;BME280;43284;47.042;15.498;2022-08-01T13:51:48;96953.41;;;30.64;35.49